Bookmark and Share
Track history (hours):
 

Sea Commander

Last reported at 2014-Apr-21 09:33 UTC. Time now 2014-Apr-23 15:30 UTC.
Position N 51°32' W 127°52'.

Length 44 m; draft 7 m.

Type: Tug. MMSI: 316001043.

NotesDate/timePositionNaut miles runAvg speedWind from/ knotsBaromVisibWave heightAir tempDewpointWater temp
2014-Apr-21 09:33N 51°32' W 127°52'22 9.6
2014-Apr-21 07:17N 51°10' W 127°54'7 9.3
2014-Apr-21 06:34N 51°05' W 127°47'10 9.7
2014-Apr-21 05:33N 50°60' W 127°34'1110.2
2014-Apr-21 04:31N 50°53' W 127°21'1010.0
2014-Apr-21 03:33N 50°46' W 127°10'12 9.3
2014-Apr-21 02:16N 50°41' W 126°53'6 6.9
2014-Apr-21 01:22N 50°37' W 126°46'4 5.1
2014-Apr-21 00:32N 50°34' W 126°41'7 6.5
2014-Apr-20 23:31N 50°30' W 126°32'4310.9
2014-Apr-20 19:32N 50°20' W 125°26'1211.7
2014-Apr-20 18:33N 50°09' W 125°21'1111.3
2014-Apr-20 17:32N 49°60' W 125°12'10 9.9
2014-Apr-20 16:29N 49°52' W 125°01'10 9.9
2014-Apr-20 15:30N 49°45' W 124°50'1010.0
2014-Apr-20 14:32N 49°40' W 124°38'10 9.9
2014-Apr-20 13:33N 49°35' W 124°24'9 9.6
2014-Apr-20 12:33N 49°30' W 124°12'1010.2
2014-Apr-20 11:33N 49°25' W 123°59'1010.0
2014-Apr-20 10:33N 49°19' W 123°47'10 9.9
2014-Apr-20 09:34N 49°12' W 123°35'9 9.5
2014-Apr-20 08:34N 49°07' W 123°23'7 7.3
2014-Apr-20 07:34N 49°07' W 123°12'8 8.0
2014-Apr-20 06:34N 49°09' W 122°60'5 4.8
2014-Apr-20 05:34N 49°12' W 122°54'0 0.0
2014-Apr-20 04:33N 49°12' W 122°54'0 0.1
2014-Apr-20 03:34N 49°12' W 122°54'0 0.0
2014-Apr-18 18:12N 49°12' W 122°54'0 0.0
2014-Apr-18 17:33N 49°12' W 122°54'0 0.0
2014-Apr-18 16:33N 49°12' W 122°54'0 0.0
2014-Apr-18 15:33N 49°12' W 122°54'0 0.0
2014-Apr-18 14:33N 49°12' W 122°54'0 0.0
2014-Apr-18 13:33N 49°12' W 122°54'0 0.0
2014-Apr-18 12:33N 49°12' W 122°54'0 0.0
2014-Apr-18 11:34N 49°12' W 122°54'0 0.0
2014-Apr-18 10:33N 49°12' W 122°54'0 0.0
2014-Apr-18 09:33N 49°12' W 122°54'0 0.0
2014-Apr-18 08:33N 49°12' W 122°54'0 0.0
2014-Apr-18 07:33N 49°12' W 122°54'0 0.0
2014-Apr-18 06:33N 49°12' W 122°54'0 0.0
2014-Apr-18 05:33N 49°12' W 122°54'0 0.0
2014-Apr-18 04:33N 49°12' W 122°54'0 0.0
2014-Apr-18 03:33N 49°12' W 122°54'0 0.0
2014-Apr-18 02:33N 49°12' W 122°54'0 0.0
2014-Apr-18 01:33N 49°12' W 122°54'0 0.0
2014-Apr-18 00:33N 49°12' W 122°54'0 0.0
2014-Apr-17 23:33N 49°12' W 122°54'0 0.0
2014-Apr-17 22:33N 49°12' W 122°54'  
2014-Apr-14 14:34N 49°12' W 122°54'0 0.0
2014-Apr-14 13:33N 49°12' W 122°54'0 0.0
2014-Apr-14 11:33N 49°12' W 122°54'0 0.0
2014-Apr-14 10:33N 49°12' W 122°54'0 0.0
2014-Apr-14 09:33N 49°12' W 122°54'0 0.0
2014-Apr-14 08:33N 49°12' W 122°54'0 0.0
2014-Apr-14 07:33N 49°12' W 122°54'0 0.0
2014-Apr-14 06:33N 49°12' W 122°54'0 0.0
2014-Apr-14 05:33N 49°12' W 122°54'0 0.0
2014-Apr-13 22:32N 49°12' W 122°54'0 0.0
2014-Apr-13 21:33N 49°12' W 122°54'0 0.0
2014-Apr-13 20:33N 49°12' W 122°54'0 0.0
2014-Apr-13 19:33N 49°12' W 122°54'0 0.0
2014-Apr-13 18:33N 49°12' W 122°54'0 0.0
2014-Apr-13 17:33N 49°12' W 122°54'0 0.0
2014-Apr-13 16:33N 49°12' W 122°54'0 0.0
2014-Apr-13 15:33N 49°12' W 122°54'0 0.0
2014-Apr-13 14:33N 49°12' W 122°54'0 0.0
2014-Apr-13 13:33N 49°12' W 122°54'0 0.0
2014-Apr-13 12:33N 49°12' W 122°54'0 0.0
2014-Apr-13 11:33N 49°12' W 122°54'0 0.0
2014-Apr-13 10:33N 49°12' W 122°54'0 0.0
2014-Apr-13 09:33N 49°12' W 122°54'0 0.0
2014-Apr-13 08:33N 49°12' W 122°54'0 0.0
2014-Apr-13 07:33N 49°12' W 122°54'0 0.0
2014-Apr-13 06:33N 49°12' W 122°54'0 0.0
2014-Apr-13 05:33N 49°12' W 122°54'0 0.0
2014-Apr-13 04:33N 49°12' W 122°54'0 0.0
2014-Apr-13 03:33N 49°12' W 122°54'0 0.0
2014-Apr-13 02:33N 49°12' W 122°54'0 0.0
2014-Apr-13 01:33N 49°12' W 122°54'0 0.0
2014-Apr-13 00:33N 49°12' W 122°54'0 0.0
2014-Apr-12 23:33N 49°12' W 122°54'0 0.0
2014-Apr-12 22:33N 49°12' W 122°54'0 0.0
2014-Apr-12 21:31N 49°12' W 122°54'0 0.0
2014-Apr-12 20:33N 49°12' W 122°54'0 0.0
2014-Apr-12 19:33N 49°12' W 122°54'0 0.0
2014-Apr-12 18:33N 49°12' W 122°54'0 0.0
2014-Apr-12 17:33N 49°12' W 122°54'0 0.0
2014-Apr-12 16:33N 49°12' W 122°54'0 0.0
2014-Apr-12 15:33N 49°12' W 122°54'0 0.0
2014-Apr-12 14:33N 49°12' W 122°54'0 0.0
2014-Apr-12 13:33N 49°12' W 122°54'0 0.0
2014-Apr-12 12:33N 49°12' W 122°54'0 0.0
2014-Apr-12 11:33N 49°12' W 122°54'0 0.0
2014-Apr-12 10:33N 49°12' W 122°54'0 0.0
2014-Apr-12 09:33N 49°12' W 122°54'0 0.0
2014-Apr-12 08:33N 49°12' W 122°54'0 0.0
2014-Apr-12 07:33N 49°12' W 122°54'0 0.0
2014-Apr-12 06:33N 49°12' W 122°54'0 0.0
2014-Apr-12 05:33N 49°12' W 122°54'0 0.0
2014-Apr-12 04:33N 49°12' W 122°54'0 0.0
2014-Apr-12 03:33N 49°12' W 122°54'0 0.0
2014-Apr-12 02:33N 49°12' W 122°54'0 0.0
2014-Apr-12 01:33N 49°12' W 122°54'0 0.0
2014-Apr-12 00:33N 49°12' W 122°54'0 0.0
2014-Apr-11 23:33N 49°12' W 122°54'0 0.0
2014-Apr-11 22:33N 49°12' W 122°54'0 0.0
2014-Apr-11 21:33N 49°12' W 122°54'0 0.0
2014-Apr-11 20:33N 49°12' W 122°54'0 0.0
2014-Apr-11 19:33N 49°12' W 122°54'0 0.0
2014-Apr-11 18:33N 49°12' W 122°54'0 0.0
2014-Apr-11 17:33N 49°12' W 122°54'0 0.0
2014-Apr-11 16:33N 49°12' W 122°54'0 0.0
2014-Apr-11 15:33N 49°12' W 122°54'0 0.0
2014-Apr-11 14:33N 49°12' W 122°54'0 0.0
2014-Apr-11 13:33N 49°12' W 122°54'0 0.0
2014-Apr-11 12:33N 49°12' W 122°54'0 0.0
2014-Apr-11 11:33N 49°12' W 122°54'0 0.0
2014-Apr-11 10:33N 49°12' W 122°54'0 0.0
2014-Apr-11 09:33N 49°12' W 122°54'  

Dump ship's entire track history

sailing weather and tide predictions

Sea Commander — VGGC — position and weather